​ ​

Форум клана ЧПУшников

Информация о пользователе

Привет, Гость! Войдите или зарегистрируйтесь.


Вы здесь » Форум клана ЧПУшников » Лазерные станки


Лазерные станки

Тем 481 страница 560 из 636

Тема Ответов Просмотров Последнее сообщение
25 763 27-06-2016 21:44:32  Salon-max
38 2160 27-06-2016 05:30:23  Юрецкий
14 458 26-06-2016 11:49:07  Quark
48 1338 24-06-2016 20:06:01  Иван1985
9 672 24-06-2016 19:54:50  Иван1985
16 714 24-06-2016 15:25:23  Sergey AA
2 130 24-06-2016 12:14:53  messer1988
8 528 22-06-2016 15:04:25  Sergey AA
8 1517 16-06-2016 22:36:09  megagad
490 Лазерное оборудование  Администратор  [ 1 2 3 ]
204 18551 12-06-2016 11:02:33  Andrey55
4 261 06-06-2016 09:19:33  Zmeei
24 1062 02-06-2016 16:29:32  Sofka
16 415 02-06-2016 09:43:13  ilcomp
3 160 31-05-2016 11:04:49  SmileCat
14 508 29-05-2016 10:38:37  Neudrums
19 1050 28-05-2016 00:03:48  Sborka
19 258 25-05-2016 12:15:46  Mikky
8 433 24-05-2016 15:31:24  sonr
21 3149 23-05-2016 23:42:46  Avel
500 Волнистый рез  angrydemon
4 277 23-05-2016 17:44:30  YuSTas
2 132 05-05-2016 11:02:05  Kuz
7 445 04-05-2016 01:16:19  snowman
10 394 28-04-2016 20:21:01  Kirian
1 161 28-04-2016 19:58:34  Kirian
37 1223 28-04-2016 14:14:04  neotex
3 783 27-04-2016 20:39:04  andrey_e
6 301 27-04-2016 16:16:09  denisej
508 Reci s2  Neudrums
35 926 26-04-2016 21:17:31  Элинка
5 514 25-04-2016 16:52:18  MPN
15 1706 23-04-2016 22:53:06  Sokrat
9 581 23-04-2016 17:45:11  Tab
35 1226 23-04-2016 13:05:00  Valera5609
18 1053 21-04-2016 12:07:58  f.laser
1 182 17-04-2016 23:10:04  megagad
515 Резка с углекислотой  Виктор Краски
23 882 17-04-2016 08:59:55  Flint2015
13 1921 15-04-2016 11:34:20  ImageLaser
11 323 11-04-2016 14:35:21  MaxMaster
13 414 09-04-2016 20:30:46  aldushin
5 294 06-04-2016 17:28:09  daguss
520 Закрыта Фото готовых работ выполненных на лазере  Администратор  [ 1 2 3  10 ]
991 98913 29-03-2016 17:50:18  sva-don
521 Закрыта Резко упала мощность  Neudrums
10 401 24-03-2016 00:59:57  Neudrums
5 504 22-03-2016 20:12:39  Дилик
523 Прошу помощи.  Назар
5 369 16-03-2016 09:51:09  Назар
8 259 14-03-2016 16:51:53  Расулыч
7 528 10-03-2016 20:36:59  chirik
5 812 07-03-2016 20:32:32  Flint2015
19 1805 04-03-2016 17:27:39  Airside
4 242 29-02-2016 22:43:44  nikson
5 190 27-02-2016 08:50:26  Flint2015
530 Тестирование размера реза  Виктор Краски
9 495 26-02-2016 16:55:55  daguss
531 кривая резка  Восходник
17 516 26-02-2016 00:06:30  semerochka
80 6735 22-02-2016 20:51:36  Kinetic
17 1058 22-02-2016 12:02:26  Kinetic
5 703 14-02-2016 15:24:59  gabber
7 617 14-02-2016 12:43:54  Zippo
12 401 12-02-2016 17:15:38  Yaroslavl
2 228 12-02-2016 10:23:44  Администратор
22 924 07-02-2016 15:27:40  Imobile
6 345 28-01-2016 17:09:21  StarPOM
25 1168 26-01-2016 15:23:58  Zippo
3 268 07-01-2016 00:45:42  okruk
4 259 05-01-2016 10:25:43  markaru
7 234 24-12-2015 12:08:34  lexus80
22 3582 21-12-2015 14:22:31  Kuz
14 420 14-12-2015 15:59:50  YuSTas
8 350 12-12-2015 20:20:10  Shamankiller
15 714 12-12-2015 18:02:39  racon75
38 1049 08-12-2015 23:46:50  asor
35 939 08-12-2015 18:35:57  dm6
8 377 07-12-2015 21:25:28  Dimon
25 933 04-12-2015 21:36:10  Silmaril
552 Лазерный станок Kamach II 1280 AS  радион рашитович
4 249 04-12-2015 20:36:20  Airside
4 316 04-12-2015 10:56:16  Drakonstar
9 689 29-11-2015 02:45:00  Лазорез
38 855 27-11-2015 18:12:36  ЫХ-000
41 1596 27-11-2015 12:34:06  Slym
44 1957 22-11-2015 11:50:31  _king_
558 mpc6525 - завис  Dr_dober
2 281 16-11-2015 12:54:39  Dr_dober
30 2312 09-11-2015 16:17:15  bort747
1 220 07-11-2015 14:48:03  MobileMan

Вы здесь » Форум клана ЧПУшников » Лазерные станки